Time;durP1;ratioP1;P1;durP2;ratioP2;P2;SDS_P1;SDS_P2;PMS_P1;PMS_P2;Temp;Humidity;BMP_temperature;BMP_pressure;BME280_temperature;BME280_humidity;BME280_pressure;Samples;Min_cycle;Max_cycle;Signal;HPM_P1;HPM_P2
2021/08/08 00:02:26;;;;;;;3.03;2.37;;;19.30;99.90;;;;;;5028832;28;20622;-72
2021/08/08 00:04:53;;;;;;;6.23;2.60;;;19.40;99.90;;;;;;5028992;28;20212;-72
2021/08/08 00:07:21;;;;;;;2.30;2.20;;;19.20;99.90;;;;;;5028182;28;20959;-72
2021/08/08 00:09:47;;;;;;;2.47;2.27;;;19.10;99.90;;;;;;5028842;28;20216;-73
2021/08/08 00:12:14;;;;;;;2.40;2.30;;;19.10;99.90;;;;;;5028681;28;20209;-73
2021/08/08 00:14:41;;;;;;;2.40;2.20;;;19.20;99.90;;;;;;5028160;28;20706;-73
2021/08/08 00:17:07;;;;;;;2.77;2.53;;;19.30;99.90;;;;;;5028651;28;20204;-73
2021/08/08 00:19:34;;;;;;;2.37;2.27;;;19.30;99.90;;;;;;5028463;28;20250;-72
2021/08/08 00:22:01;;;;;;;2.67;2.47;;;19.20;99.90;;;;;;5028664;28;20240;-73
2021/08/08 00:24:29;;;;;;;5.00;2.97;;;19.30;99.90;;;;;;5028532;28;20259;-73
2021/08/08 00:26:55;;;;;;;3.83;2.50;;;19.30;99.90;;;;;;5028376;28;20717;-73
2021/08/08 00:29:22;;;;;;;2.87;2.60;;;19.20;99.90;;;;;;5028416;28;20286;-73
2021/08/08 00:31:49;;;;;;;2.70;2.50;;;18.90;99.90;;;;;;5027834;28;20228;-73
2021/08/08 00:34:16;;;;;;;3.53;2.43;;;19.00;99.90;;;;;;5027827;28;20226;-73
2021/08/08 00:36:42;;;;;;;3.80;2.77;;;18.70;99.90;;;;;;5028409;28;20205;-73
2021/08/08 00:39:09;;;;;;;2.80;2.60;;;18.60;99.90;;;;;;5028371;28;20208;-73
2021/08/08 00:41:37;;;;;;;2.87;2.70;;;18.40;99.90;;;;;;5028410;28;20270;-74
2021/08/08 00:44:04;;;;;;;2.77;2.40;;;18.30;99.90;;;;;;5028478;28;20279;-74
2021/08/08 00:46:31;;;;;;;4.13;2.97;;;18.30;99.90;;;;;;5028258;28;20209;-75
2021/08/08 00:48:59;;;;;;;3.47;3.10;;;18.30;99.90;;;;;;5036145;28;20239;-74
2021/08/08 00:51:27;;;;;;;2.90;2.70;;;18.30;99.90;;;;;;5048097;28;20232;-74
2021/08/08 00:53:54;;;;;;;3.17;2.90;;;18.40;99.90;;;;;;5048178;28;20235;-74
2021/08/08 00:56:20;;;;;;;2.77;2.57;;;18.40;99.90;;;;;;5048177;28;20293;-73
2021/08/08 00:58:48;;;;;;;2.97;2.77;;;18.40;99.90;;;;;;5047957;28;20232;-74
2021/08/08 01:01:19;;;;;;;2.87;2.67;;;18.50;99.90;;;;;;5048178;28;20200;-73
2021/08/08 01:03:46;;;;;;;2.90;2.70;;;18.40;99.90;;;;;;5048124;28;20611;-74
2021/08/08 01:06:18;;;;;;;2.70;2.50;;;18.40;99.90;;;;;;5048097;28;20208;-73
2021/08/08 01:08:48;;;;;;;2.90;2.70;;;18.40;99.90;;;;;;5048053;28;20228;-73
2021/08/08 01:11:16;;;;;;;3.13;2.60;;;18.40;99.90;;;;;;5048079;28;20281;-73
2021/08/08 01:13:43;;;;;;;3.60;3.00;;;18.20;99.90;;;;;;5045606;28;20224;-73
2021/08/08 01:16:13;;;;;;;2.80;2.60;;;18.20;99.90;;;;;;5028033;28;20262;-73
2021/08/08 01:18:41;;;;;;;2.60;2.50;;;18.20;99.90;;;;;;5028007;28;20587;-73
2021/08/08 01:21:07;;;;;;;2.80;2.60;;;18.30;99.90;;;;;;5028231;28;20286;-73
2021/08/08 01:23:35;;;;;;;3.37;2.70;;;18.40;99.90;;;;;;5027756;28;20212;-72
2021/08/08 01:26:04;;;;;;;4.43;2.83;;;18.20;99.90;;;;;;5027945;28;20535;-73
2021/08/08 01:28:30;;;;;;;4.00;2.83;;;18.00;99.90;;;;;;5027714;28;20209;-72
2021/08/08 01:30:57;;;;;;;3.30;2.70;;;17.90;99.90;;;;;;5028071;28;20495;-73
2021/08/08 01:33:24;;;;;;;2.83;2.63;;;17.90;99.90;;;;;;5027412;28;20298;-72
2021/08/08 01:35:51;;;;;;;3.27;2.90;;;17.90;99.90;;;;;;5028049;28;20209;-73
2021/08/08 01:38:19;;;;;;;6.40;3.10;;;17.90;99.90;;;;;;5027706;28;20320;-73
2021/08/08 01:40:52;;;;;;;3.23;2.93;;;17.80;99.90;;;;;;5027878;28;20213;-72
2021/08/08 01:43:26;;;;;;;6.03;3.20;;;17.90;99.90;;;;;;5027784;28;20197;-73
2021/08/08 01:46:03;;;;;;;2.73;2.53;;;17.80;99.90;;;;;;5031481;28;20200;-73
2021/08/08 01:48:30;;;;;;;3.87;2.70;;;17.90;99.90;;;;;;5031386;28;20197;-73
2021/08/08 01:50:57;;;;;;;2.90;2.80;;;18.00;99.90;;;;;;5031341;28;20663;-73
2021/08/08 01:53:24;;;;;;;2.83;2.73;;;17.80;99.90;;;;;;5031114;28;20271;-73
2021/08/08 01:55:50;;;;;;;2.80;2.70;;;18.00;99.90;;;;;;5031487;28;20259;-73
2021/08/08 01:58:17;;;;;;;3.30;3.00;;;18.10;99.90;;;;;;5030927;28;20682;-73
2021/08/08 02:00:49;;;;;;;3.70;2.87;;;18.00;99.90;;;;;;5031150;28;20208;-72
2021/08/08 02:03:16;;;;;;;3.70;2.80;;;17.90;99.90;;;;;;5030964;28;20237;-73
2021/08/08 02:05:43;;;;;;;2.60;2.50;;;18.00;99.90;;;;;;5030988;28;20302;-72
2021/08/08 02:08:09;;;;;;;2.70;2.60;;;17.90;99.90;;;;;;5030821;28;20229;-72
2021/08/08 02:10:36;;;;;;;3.00;2.73;;;17.90;99.90;;;;;;5030856;28;20200;-73
2021/08/08 02:13:03;;;;;;;2.87;2.77;;;17.90;99.90;;;;;;5031109;28;20255;-72
2021/08/08 02:15:30;;;;;;;3.53;2.60;;;17.80;99.90;;;;;;5030744;28;20209;-74
2021/08/08 02:17:58;;;;;;;3.70;2.90;;;17.70;99.90;;;;;;5030765;28;20741;-75
2021/08/08 02:20:24;;;;;;;3.27;2.87;;;17.80;99.90;;;;;;5030632;28;20204;-74
2021/08/08 02:22:51;;;;;;;2.63;2.50;;;17.80;99.90;;;;;;5030779;28;20267;-72
2021/08/08 02:25:18;;;;;;;3.00;2.80;;;17.70;99.90;;;;;;5030735;28;20291;-71
2021/08/08 02:27:44;;;;;;;2.83;2.50;;;17.80;99.90;;;;;;5030371;28;20679;-72
2021/08/08 02:30:12;;;;;;;2.70;2.50;;;17.80;99.90;;;;;;5030874;28;20220;-74
2021/08/08 02:32:39;;;;;;;4.47;3.13;;;17.90;99.90;;;;;;5030695;28;20225;-72
2021/08/08 02:35:12;;;;;;;2.73;2.60;;;17.70;99.90;;;;;;5030597;28;20310;-73
2021/08/08 02:37:38;;;;;;;4.27;2.73;;;17.70;99.90;;;;;;5030061;28;20653;-73
2021/08/08 02:40:06;;;;;;;5.20;2.97;;;17.70;99.90;;;;;;5030479;28;20251;-73
2021/08/08 02:42:33;;;;;;;3.60;2.77;;;17.70;99.90;;;;;;5030397;28;20626;-72
2021/08/08 02:44:59;;;;;;;2.60;2.40;;;17.60;99.90;;;;;;5030384;28;20236;-72
2021/08/08 02:47:27;;;;;;;3.47;2.67;;;17.60;99.90;;;;;;5030227;28;20201;-72
2021/08/08 02:49:53;;;;;;;2.80;2.60;;;17.70;99.90;;;;;;5030379;28;20212;-72
2021/08/08 02:52:21;;;;;;;3.00;2.80;;;17.60;99.90;;;;;;5030138;28;20233;-72
2021/08/08 02:54:48;;;;;;;3.00;2.67;;;17.70;99.90;;;;;;5030060;28;20284;-73
2021/08/08 02:57:14;;;;;;;5.33;2.80;;;17.80;99.90;;;;;;5029496;28;20213;-72
2021/08/08 02:59:41;;;;;;;2.83;2.60;;;17.80;99.90;;;;;;5029603;28;20232;-72
2021/08/08 03:02:08;;;;;;;4.43;3.00;;;17.70;99.90;;;;;;5030120;28;20212;-73
2021/08/08 03:04:34;;;;;;;2.93;2.73;;;17.70;99.90;;;;;;5030008;28;20208;-73
2021/08/08 03:07:01;;;;;;;3.33;2.57;;;17.60;99.90;;;;;;5029974;28;20351;-71
2021/08/08 03:09:29;;;;;;;3.87;2.87;;;17.50;99.90;;;;;;5029788;28;20274;-74
2021/08/08 03:11:56;;;;;;;3.10;2.83;;;17.50;99.90;;;;;;5030018;28;20263;-73
2021/08/08 03:14:22;;;;;;;3.40;2.70;;;17.50;99.90;;;;;;5029577;28;20279;-73
2021/08/08 03:16:49;;;;;;;4.83;2.80;;;17.60;99.90;;;;;;5029708;28;20217;-74
2021/08/08 03:19:17;;;;;;;2.90;2.60;;;17.60;99.90;;;;;;5029910;28;20267;-74
2021/08/08 03:21:45;;;;;;;3.00;2.80;;;17.60;99.90;;;;;;5029529;28;20200;-74
2021/08/08 03:24:11;;;;;;;2.33;2.23;;;17.50;99.90;;;;;;5029870;28;20209;-74
2021/08/08 03:26:40;;;;;;;3.37;2.63;;;17.60;99.90;;;;;;5029618;28;20209;-73
2021/08/08 03:29:08;;;;;;;3.27;2.80;;;17.60;99.90;;;;;;5029424;28;20248;-73
2021/08/08 03:31:35;;;;;;;3.10;2.90;;;17.50;99.90;;;;;;5029360;28;20225;-74
2021/08/08 03:34:02;;;;;;;2.90;2.70;;;17.60;99.90;;;;;;5029411;28;20225;-73
2021/08/08 03:36:28;;;;;;;4.80;2.83;;;17.50;99.90;;;;;;5029321;28;20219;-74
2021/08/08 03:38:55;;;;;;;3.43;2.53;;;17.50;99.90;;;;;;5029391;28;20213;-74
2021/08/08 03:41:22;;;;;;;3.17;2.87;;;17.40;99.90;;;;;;5029397;28;20209;-72
2021/08/08 03:43:50;;;;;;;2.63;2.43;;;17.40;99.90;;;;;;5029282;28;20275;-72
2021/08/08 03:46:16;;;;;;;4.47;3.03;;;17.40;99.90;;;;;;5029411;28;20213;-72
2021/08/08 03:48:43;;;;;;;5.50;2.80;;;17.40;99.90;;;;;;5029230;28;20271;-72
2021/08/08 03:51:10;;;;;;;2.83;2.57;;;17.30;99.90;;;;;;5029168;28;20255;-72
2021/08/08 03:53:36;;;;;;;6.10;2.60;;;17.30;99.90;;;;;;5028945;28;20663;-72
2021/08/08 03:56:03;;;;;;;2.40;2.13;;;17.30;99.90;;;;;;5029257;28;20209;-72
2021/08/08 03:58:30;;;;;;;3.10;2.90;;;17.30;99.90;;;;;;5028379;28;20727;-72
2021/08/08 04:01:00;;;;;;;2.40;2.23;;;17.30;99.90;;;;;;5028941;28;20255;-72
2021/08/08 04:03:28;;;;;;;2.33;2.13;;;17.20;99.90;;;;;;5028939;28;20236;-72
2021/08/08 04:05:55;;;;;;;5.27;2.63;;;17.20;99.90;;;;;;5028920;28;20232;-72
2021/08/08 04:08:21;;;;;;;2.60;2.40;;;17.20;99.90;;;;;;5028431;28;20224;-72
2021/08/08 04:10:48;;;;;;;2.40;2.20;;;17.20;99.90;;;;;;5028966;28;20246;-73
2021/08/08 04:13:15;;;;;;;2.77;2.60;;;17.30;99.90;;;;;;5028994;28;20205;-74
2021/08/08 04:15:41;;;;;;;4.43;2.20;;;17.30;99.90;;;;;;5028709;28;20730;-72
2021/08/08 04:18:12;;;;;;;3.50;2.57;;;17.20;99.90;;;;;;5028660;28;20258;-72
2021/08/08 04:20:39;;;;;;;3.33;2.20;;;17.20;99.90;;;;;;5028800;28;20459;-73
2021/08/08 04:23:06;;;;;;;2.17;2.00;;;17.20;99.90;;;;;;5028560;28;20606;-73
2021/08/08 04:25:33;;;;;;;3.03;2.00;;;17.20;99.90;;;;;;5028489;28;20240;-75
2021/08/08 04:28:00;;;;;;;3.53;2.17;;;17.30;99.90;;;;;;5028715;28;20208;-75
2021/08/08 04:30:27;;;;;;;1.90;1.80;;;17.30;99.90;;;;;;5028786;28;20239;-72
2021/08/08 04:32:54;;;;;;;2.10;1.80;;;17.20;99.90;;;;;;5028426;28;20279;-72
2021/08/08 04:35:22;;;;;;;3.83;1.90;;;17.10;99.90;;;;;;5028508;28;20244;-72
2021/08/08 04:37:49;;;;;;;2.20;2.00;;;17.10;99.90;;;;;;5028234;28;20204;-72
2021/08/08 04:40:15;;;;;;;2.03;1.80;;;17.10;99.90;;;;;;5028175;28;20824;-72
2021/08/08 04:42:44;;;;;;;2.93;1.90;;;17.10;99.90;;;;;;5028055;28;20212;-72
2021/08/08 04:45:14;;;;;;;2.17;1.80;;;17.00;99.90;;;;;;5028378;28;20267;-72
2021/08/08 04:47:40;;;;;;;2.10;1.90;;;17.10;99.90;;;;;;5028207;28;20254;-72
2021/08/08 04:50:10;;;;;;;1.97;1.60;;;17.10;99.90;;;;;;5028295;28;20204;-73
2021/08/08 04:52:39;;;;;;;1.80;1.70;;;17.10;99.90;;;;;;5028074;28;20545;-73
2021/08/08 04:55:08;;;;;;;3.70;1.97;;;17.10;99.90;;;;;;5028308;28;20236;-72
2021/08/08 04:57:35;;;;;;;2.00;1.67;;;17.10;99.90;;;;;;5027989;28;20240;-73
2021/08/08 05:00:01;;;;;;;2.43;2.03;;;17.10;99.90;;;;;;5027897;28;20236;-73
2021/08/08 05:02:28;;;;;;;2.27;1.43;;;17.10;99.90;;;;;;5028314;28;20244;-73
2021/08/08 05:04:55;;;;;;;2.00;1.77;;;17.10;99.90;;;;;;5028142;28;20624;-72
2021/08/08 05:07:21;;;;;;;2.83;1.60;;;17.10;99.90;;;;;;5028253;28;20225;-73
2021/08/08 05:09:49;;;;;;;3.57;1.93;;;17.10;99.90;;;;;;5028255;28;20619;-73
2021/08/08 05:12:16;;;;;;;1.63;1.53;;;17.20;99.90;;;;;;5028403;28;20209;-73
2021/08/08 05:14:43;;;;;;;1.63;1.53;;;17.20;99.90;;;;;;5028156;28;20228;-72
2021/08/08 05:17:10;;;;;;;1.73;1.60;;;17.20;99.90;;;;;;5028289;28;20233;-73
2021/08/08 05:19:36;;;;;;;1.60;1.50;;;17.30;99.90;;;;;;5029897;28;20575;-73
2021/08/08 05:22:03;;;;;;;1.33;1.23;;;17.30;99.90;;;;;;5032217;28;20213;-72
2021/08/08 05:24:30;;;;;;;1.43;1.30;;;17.30;99.90;;;;;;5031747;28;20659;-73
2021/08/08 05:26:58;;;;;;;1.57;1.47;;;17.40;99.90;;;;;;5032041;28;20208;-73
2021/08/08 05:29:25;;;;;;;1.83;1.33;;;17.40;99.90;;;;;;5031802;28;20225;-73
2021/08/08 05:31:52;;;;;;;2.20;1.30;;;17.40;99.90;;;;;;5031523;28;20710;-72
2021/08/08 05:34:18;;;;;;;1.80;1.37;;;17.50;99.90;;;;;;5031573;28;20291;-72
2021/08/08 05:36:45;;;;;;;4.37;1.50;;;17.50;99.90;;;;;;5031210;28;20208;-72
2021/08/08 05:39:11;;;;;;;1.60;1.50;;;17.50;99.90;;;;;;5031892;28;20290;-72
2021/08/08 05:41:38;;;;;;;2.67;0.83;;;17.60;99.90;;;;;;5031521;28;20209;-73
2021/08/08 05:44:06;;;;;;;1.80;1.10;;;17.60;99.90;;;;;;5031631;28;20208;-72
2021/08/08 05:46:33;;;;;;;1.53;1.43;;;17.60;99.90;;;;;;5031577;28;20209;-71
2021/08/08 05:49:00;;;;;;;1.37;1.10;;;17.60;99.90;;;;;;5031532;28;20220;-71
2021/08/08 05:51:26;;;;;;;1.80;1.33;;;17.60;99.90;;;;;;5031418;28;20201;-71
2021/08/08 05:53:53;;;;;;;2.23;1.20;;;17.60;99.90;;;;;;5031033;28;20209;-72
2021/08/08 05:56:19;;;;;;;2.60;1.10;;;17.70;99.90;;;;;;5031362;28;20272;-71
2021/08/08 05:58:46;;;;;;;2.57;1.17;;;17.70;99.90;;;;;;5030968;28;20237;-72
2021/08/08 06:01:14;;;;;;;1.00;0.90;;;17.70;99.90;;;;;;5030906;28;20282;-71
2021/08/08 06:03:40;;;;;;;2.77;1.20;;;17.70;99.90;;;;;;5030876;28;20204;-72
2021/08/08 06:06:10;;;;;;;1.47;0.80;;;17.80;99.90;;;;;;5030624;28;20610;-72
2021/08/08 06:08:36;;;;;;;1.20;1.10;;;17.80;99.90;;;;;;5030615;28;20679;-72
2021/08/08 06:11:03;;;;;;;1.50;1.30;;;17.90;99.90;;;;;;5031049;28;20267;-72
2021/08/08 06:13:29;;;;;;;1.50;0.87;;;18.00;99.90;;;;;;5030896;28;20213;-72
2021/08/08 06:15:56;;;;;;;0.83;0.80;;;18.00;99.90;;;;;;5030776;28;20236;-72
2021/08/08 06:18:24;;;;;;;3.37;1.10;;;18.10;99.90;;;;;;5031064;28;20204;-73
2021/08/08 06:20:51;;;;;;;1.63;1.13;;;18.10;99.90;;;;;;5030825;28;20267;-73
2021/08/08 06:23:18;;;;;;;1.70;1.00;;;18.10;99.90;;;;;;5030966;28;20208;-72
2021/08/08 06:25:44;;;;;;;0.80;0.80;;;18.10;99.90;;;;;;5030497;28;20675;-72
2021/08/08 06:28:11;;;;;;;2.10;0.70;;;18.10;99.90;;;;;;5030473;28;20225;-72
2021/08/08 06:30:38;;;;;;;1.93;1.07;;;18.20;99.90;;;;;;5030642;28;20213;-72
2021/08/08 06:33:04;;;;;;;0.93;0.80;;;18.20;99.90;;;;;;5030889;28;20271;-72
2021/08/08 06:35:33;;;;;;;0.87;0.77;;;18.20;99.90;;;;;;5030700;28;20275;-72
2021/08/08 06:37:59;;;;;;;1.70;0.73;;;18.30;99.90;;;;;;5030422;28;20205;-71
2021/08/08 06:40:26;;;;;;;1.90;1.30;;;18.40;99.90;;;;;;5030687;28;20209;-72
2021/08/08 06:42:52;;;;;;;1.90;0.87;;;18.40;99.90;;;;;;5030205;28;20615;-72
2021/08/08 06:45:19;;;;;;;3.73;1.27;;;18.40;99.90;;;;;;5030272;28;20587;-72
2021/08/08 06:47:46;;;;;;;0.80;0.80;;;18.50;99.90;;;;;;5029937;28;20727;-72
2021/08/08 06:50:13;;;;;;;1.23;0.93;;;18.50;99.90;;;;;;5030460;28;20209;-71
2021/08/08 06:52:41;;;;;;;1.23;1.10;;;18.60;99.90;;;;;;5030112;28;20209;-71
2021/08/08 06:55:09;;;;;;;2.37;0.90;;;18.60;99.90;;;;;;5029708;28;20256;-71
2021/08/08 06:57:36;;;;;;;0.83;0.80;;;18.70;99.90;;;;;;5030251;28;20217;-72
2021/08/08 07:00:02;;;;;;;1.40;1.30;;;18.70;99.90;;;;;;5029781;28;20637;-71
2021/08/08 07:02:29;;;;;;;0.80;0.80;;;18.80;99.90;;;;;;5029989;28;20209;-72
2021/08/08 07:04:56;;;;;;;1.90;0.70;;;18.90;99.90;;;;;;5029021;28;20357;-72
2021/08/08 07:07:22;;;;;;;2.23;0.90;;;18.90;99.90;;;;;;5029142;28;20229;-72
2021/08/08 07:09:50;;;;;;;0.97;0.83;;;18.90;99.90;;;;;;5029952;28;20204;-72
2021/08/08 07:12:17;;;;;;;1.10;1.00;;;18.90;99.90;;;;;;5029989;28;20213;-72
2021/08/08 07:14:44;;;;;;;0.70;0.70;;;19.00;99.90;;;;;;5029734;28;20558;-71
2021/08/08 07:17:10;;;;;;;1.83;0.90;;;19.10;99.90;;;;;;5029750;28;20208;-71
2021/08/08 07:19:37;;;;;;;3.17;0.83;;;19.10;99.90;;;;;;5029762;28;20209;-71
2021/08/08 07:22:04;;;;;;;0.87;0.70;;;19.20;99.90;;;;;;5029684;28;20207;-72
2021/08/08 07:24:31;;;;;;;1.33;1.00;;;19.20;99.90;;;;;;5029807;28;20208;-72
2021/08/08 07:26:58;;;;;;;0.67;0.53;;;19.20;99.90;;;;;;5029785;28;20236;-72
2021/08/08 07:29:26;;;;;;;0.70;0.70;;;19.30;99.90;;;;;;5029608;28;20229;-72
2021/08/08 07:31:53;;;;;;;0.80;0.80;;;19.40;99.90;;;;;;5029310;28;20236;-70
2021/08/08 07:34:19;;;;;;;0.77;0.77;;;19.40;99.90;;;;;;5029653;28;20213;-70
2021/08/08 07:36:46;;;;;;;0.67;0.67;;;19.40;99.90;;;;;;5028788;28;20290;-70
2021/08/08 07:39:13;;;;;;;0.90;0.90;;;19.50;99.90;;;;;;5029396;28;20236;-72
2021/08/08 07:41:40;;;;;;;0.70;0.70;;;19.50;99.90;;;;;;5028941;28;20259;-72
2021/08/08 07:44:08;;;;;;;1.10;0.90;;;19.50;99.90;;;;;;5029253;28;20209;-72
2021/08/08 07:46:35;;;;;;;2.40;0.83;;;19.50;99.90;;;;;;5029344;28;20246;-70
2021/08/08 07:49:02;;;;;;;0.73;0.73;;;19.50;99.90;;;;;;5029138;28;20209;-72
2021/08/08 07:51:28;;;;;;;1.60;1.03;;;19.50;99.90;;;;;;5029417;28;20298;-72
2021/08/08 07:53:55;;;;;;;1.03;0.90;;;19.60;99.90;;;;;;5028624;28;20750;-72
2021/08/08 07:56:21;;;;;;;2.23;0.57;;;19.70;99.90;;;;;;5029029;28;20251;-70
2021/08/08 07:58:48;;;;;;;2.30;0.90;;;19.80;99.90;;;;;;5028726;28;20272;-70
2021/08/08 08:01:19;;;;;;;0.70;0.70;;;19.90;99.90;;;;;;5028940;28;20259;-71
2021/08/08 08:03:46;;;;;;;0.70;0.70;;;19.90;99.90;;;;;;5028679;28;20204;-71
2021/08/08 08:06:12;;;;;;;0.90;0.90;;;20.00;99.90;;;;;;5034093;28;20224;-71
2021/08/08 08:08:40;;;;;;;0.70;0.63;;;20.00;99.90;;;;;;5045281;28;20297;-71
2021/08/08 08:11:07;;;;;;;2.47;1.00;;;20.10;99.90;;;;;;5043354;28;20219;-71
2021/08/08 08:13:34;;;;;;;2.37;0.90;;;20.20;99.90;;;;;;5045227;28;20278;-72
2021/08/08 08:16:00;;;;;;;0.60;0.60;;;20.20;99.90;;;;;;5044667;28;20240;-72
2021/08/08 08:18:28;;;;;;;1.43;1.10;;;20.20;99.90;;;;;;5041737;28;20200;-76
2021/08/08 08:20:55;;;;;;;1.60;1.00;;;20.10;99.90;;;;;;5044824;28;20212;-76
2021/08/08 08:23:21;;;;;;;1.50;0.90;;;20.10;99.90;;;;;;5029142;28;20200;-75
2021/08/08 08:25:48;;;;;;;2.47;0.70;;;20.00;99.90;;;;;;5027409;28;20235;-71
2021/08/08 08:28:15;;;;;;;0.70;0.70;;;20.00;99.90;;;;;;5024554;28;20228;-72
2021/08/08 08:30:42;;;;;;;1.37;0.80;;;20.00;99.90;;;;;;5034288;28;20254;-71
2021/08/08 08:33:09;;;;;;;3.17;1.00;;;20.00;99.90;;;;;;5044662;28;20459;-71
2021/08/08 08:35:37;;;;;;;1.90;1.10;;;20.10;99.90;;;;;;5044564;28;20243;-71
2021/08/08 08:38:04;;;;;;;2.20;0.90;;;20.10;99.90;;;;;;5041429;28;20232;-71
2021/08/08 08:40:33;;;;;;;0.80;0.80;;;20.20;99.90;;;;;;5029069;28;20734;-71
2021/08/08 08:43:03;;;;;;;1.33;0.90;;;20.10;99.90;;;;;;5026078;28;20745;-71
2021/08/08 08:45:30;;;;;;;1.60;0.90;;;20.20;99.90;;;;;;5029973;28;20295;-71
2021/08/08 08:47:58;;;;;;;1.00;0.87;;;20.10;99.90;;;;;;5024853;28;20204;-71
2021/08/08 08:50:25;;;;;;;1.10;1.00;;;20.10;99.90;;;;;;5032370;28;20675;-75
2021/08/08 08:52:54;;;;;;;0.83;0.83;;;20.20;99.90;;;;;;5024838;28;20278;-74
2021/08/08 08:55:21;;;;;;;2.47;1.00;;;20.30;99.90;;;;;;5028176;28;20204;-71
2021/08/08 08:57:48;;;;;;;2.17;0.97;;;20.40;99.90;;;;;;5028498;28;20212;-71
2021/08/08 09:00:16;;;;;;;0.60;0.60;;;20.30;99.90;;;;;;5046800;28;20200;-71
2021/08/08 09:02:43;;;;;;;0.70;0.70;;;20.30;99.90;;;;;;5048802;28;20207;-71
2021/08/08 09:05:10;;;;;;;1.57;0.70;;;20.30;99.90;;;;;;5048813;28;20567;-71
2021/08/08 09:07:37;;;;;;;0.77;0.77;;;20.30;99.90;;;;;;5048262;28;20228;-71
2021/08/08 09:10:10;;;;;;;2.80;0.93;;;20.20;99.90;;;;;;5048047;28;20200;-71
2021/08/08 09:12:37;;;;;;;0.73;0.73;;;20.20;99.90;;;;;;5048576;28;20196;-71
2021/08/08 09:15:05;;;;;;;0.93;0.70;;;20.30;99.90;;;;;;5044537;28;20208;-71
2021/08/08 09:17:36;;;;;;;1.67;0.80;;;20.40;99.90;;;;;;5039995;28;20224;-71
2021/08/08 09:20:05;;;;;;;1.03;0.80;;;20.50;99.90;;;;;;5041501;28;20597;-72
2021/08/08 09:22:32;;;;;;;1.20;0.70;;;20.50;99.90;;;;;;5041427;28;20660;-71
2021/08/08 09:24:59;;;;;;;0.80;0.80;;;20.50;99.90;;;;;;5040148;28;20258;-72
2021/08/08 09:27:35;;;;;;;0.87;0.87;;;20.60;99.90;;;;;;5040763;28;20263;-72
2021/08/08 09:30:05;;;;;;;1.00;0.90;;;20.60;99.90;;;;;;5042831;28;20553;-71
2021/08/08 09:32:35;;;;;;;0.67;0.67;;;20.70;99.90;;;;;;5036540;28;20286;-72
2021/08/08 09:35:08;;;;;;;1.33;0.70;;;20.70;99.90;;;;;;5031718;28;20255;-72
2021/08/08 09:37:35;;;;;;;1.10;0.70;;;20.90;99.90;;;;;;5034932;28;20232;-72
2021/08/08 09:40:02;;;;;;;2.30;0.57;;;20.90;99.90;;;;;;5051198;28;20282;-72
2021/08/08 09:42:31;;;;;;;0.83;0.83;;;21.10;99.90;;;;;;5051317;28;20208;-72
2021/08/08 09:45:00;;;;;;;0.70;0.70;;;21.00;99.90;;;;;;5035930;28;20213;-72
2021/08/08 09:47:38;;;;;;;0.80;0.80;;;20.90;99.90;;;;;;5049586;28;20234;-72
2021/08/08 09:50:06;;;;;;;1.20;0.83;;;21.10;99.90;;;;;;5043380;28;20208;-72
2021/08/08 09:52:34;;;;;;;0.90;0.90;;;21.20;99.90;;;;;;5042393;28;20208;-72
2021/08/08 09:55:01;;;;;;;2.77;1.10;;;21.30;99.90;;;;;;5050008;28;20212;-69
2021/08/08 09:57:38;;;;;;;0.80;0.80;;;21.20;99.90;;;;;;5039769;28;20702;-73
2021/08/08 10:00:08;;;;;;;2.27;1.37;;;21.20;99.90;;;;;;5046104;28;20235;-71
2021/08/08 10:02:34;;;;;;;2.03;0.93;;;21.10;99.90;;;;;;5045912;28;20204;-70
2021/08/08 10:05:01;;;;;;;1.50;0.90;;;21.00;99.90;;;;;;5042808;28;20208;-70
2021/08/08 10:07:29;;;;;;;3.53;0.80;;;20.90;99.90;;;;;;5041415;28;20216;-70
2021/08/08 10:09:58;;;;;;;0.80;0.80;;;20.90;99.90;;;;;;5031125;28;20212;-69
2021/08/08 10:12:40;;;;;;;1.10;0.70;;;21.00;99.90;;;;;;5044224;28;20242;-70
2021/08/08 10:15:09;;;;;;;0.73;0.70;;;21.30;99.90;;;;;;5046948;28;20200;-69
2021/08/08 10:17:37;;;;;;;1.57;0.90;;;21.40;99.90;;;;;;5046873;28;20246;-69
2021/08/08 10:20:06;;;;;;;1.47;0.80;;;21.70;99.90;;;;;;5046826;28;20208;-72
2021/08/08 10:22:35;;;;;;;0.90;0.90;;;21.80;99.90;;;;;;5046810;28;20211;-72
2021/08/08 10:25:02;;;;;;;0.80;0.80;;;21.90;99.90;;;;;;5047120;28;20428;-72
2021/08/08 10:27:30;;;;;;;1.63;1.23;;;22.00;99.90;;;;;;5047070;28;20215;-73
2021/08/08 10:29:59;;;;;;;1.20;1.10;;;22.00;99.90;;;;;;5047166;28;20208;-72
2021/08/08 10:32:27;;;;;;;1.10;0.80;;;22.10;99.90;;;;;;5047117;28;20711;-73
2021/08/08 10:34:54;;;;;;;1.93;1.00;;;22.30;99.90;;;;;;5046457;28;20246;-72
2021/08/08 10:37:23;;;;;;;1.50;0.90;;;22.30;99.90;;;;;;5046477;28;20313;-73
2021/08/08 10:39:50;;;;;;;1.57;0.70;;;22.40;99.90;;;;;;5040635;28;20667;-74
2021/08/08 10:42:17;;;;;;;1.13;1.03;;;22.50;99.90;;;;;;5045013;28;20266;-73
2021/08/08 10:44:48;;;;;;;0.83;0.70;;;22.60;99.90;;;;;;5045426;28;20759;-74
2021/08/08 10:47:27;;;;;;;2.00;0.80;;;22.60;99.90;;;;;;5046364;28;20208;-74
2021/08/08 10:49:54;;;;;;;2.83;0.90;;;22.60;99.90;;;;;;5046426;28;20243;-73
2021/08/08 10:52:21;;;;;;;2.17;0.80;;;22.50;99.90;;;;;;5046603;28;20240;-73
2021/08/08 10:54:52;;;;;;;0.60;0.60;;;22.30;99.90;;;;;;5046510;28;20239;-73
2021/08/08 10:57:20;;;;;;;1.20;1.10;;;22.20;99.90;;;;;;5046346;28;20227;-74
2021/08/08 10:59:48;;;;;;;1.07;0.80;;;22.20;99.90;;;;;;5045770;28;20709;-74
2021/08/08 11:02:16;;;;;;;1.00;0.70;;;22.10;99.90;;;;;;5028058;28;20222;-71
2021/08/08 11:04:44;;;;;;;1.73;0.87;;;22.10;99.90;;;;;;5026004;28;20772;-72
2021/08/08 11:07:11;;;;;;;0.77;0.77;;;22.20;99.90;;;;;;5025751;28;20782;-72
2021/08/08 11:09:39;;;;;;;2.90;0.90;;;22.30;99.90;;;;;;5026036;28;20685;-73
2021/08/08 11:12:07;;;;;;;0.80;0.80;;;22.50;99.90;;;;;;5026269;28;20209;-70
2021/08/08 11:14:34;;;;;;;1.90;1.10;;;22.70;99.90;;;;;;5027168;28;20204;-72
2021/08/08 11:17:03;;;;;;;1.10;1.10;;;22.70;99.90;;;;;;5028339;28;20267;-72
2021/08/08 11:19:34;;;;;;;1.10;1.10;;;22.60;99.90;;;;;;5028815;28;20239;-72
2021/08/08 11:22:11;;;;;;;2.83;2.53;;;22.50;99.90;;;;;;5029335;28;20204;-72
2021/08/08 11:24:38;;;;;;;2.43;2.23;;;22.30;99.90;;;;;;5029708;28;20200;-72
2021/08/08 11:27:05;;;;;;;2.57;1.50;;;22.20;99.90;;;;;;5029347;28;20244;-72
2021/08/08 11:29:33;;;;;;;1.87;1.00;;;22.10;99.90;;;;;;5029635;28;20270;-72
2021/08/08 11:32:01;;;;;;;1.63;0.90;;;22.00;99.90;;;;;;5029491;28;20228;-72
2021/08/08 11:34:28;;;;;;;4.63;1.20;;;22.00;99.90;;;;;;5029310;28;20209;-72
2021/08/08 11:36:56;;;;;;;1.40;1.00;;;22.10;99.90;;;;;;5029199;28;20236;-72
2021/08/08 11:39:32;;;;;;;1.63;1.20;;;22.20;99.90;;;;;;5029484;28;20201;-72
2021/08/08 11:42:01;;;;;;;1.80;1.10;;;22.40;99.90;;;;;;5028741;28;20666;-71
2021/08/08 11:44:36;;;;;;;1.57;1.00;;;22.30;99.90;;;;;;5029257;28;20205;-72
2021/08/08 11:47:03;;;;;;;1.23;0.97;;;22.30;99.90;;;;;;5028883;28;20277;-72
2021/08/08 11:49:31;;;;;;;2.27;1.40;;;22.30;99.90;;;;;;5028658;28;20271;-72
2021/08/08 11:51:59;;;;;;;1.73;1.10;;;22.30;99.90;;;;;;5028881;28;20212;-72
2021/08/08 11:54:29;;;;;;;1.33;1.10;;;22.40;99.90;;;;;;5029138;28;20205;-72
2021/08/08 11:56:56;;;;;;;1.43;1.03;;;22.40;99.90;;;;;;5028975;28;20229;-72
2021/08/08 11:59:27;;;;;;;1.30;0.90;;;22.40;99.90;;;;;;5028552;28;20801;-72
2021/08/08 12:01:58;;;;;;;2.80;1.10;;;22.50;99.90;;;;;;5029018;28;20259;-72
2021/08/08 12:04:26;;;;;;;4.60;1.10;;;22.50;99.90;;;;;;5028738;28;20208;-72
2021/08/08 12:06:54;;;;;;;3.80;1.00;;;22.40;99.90;;;;;;5028568;28;20298;-72
2021/08/08 12:09:21;;;;;;;1.37;0.70;;;22.50;99.90;;;;;;5028641;28;20205;-72
2021/08/08 12:11:52;;;;;;;2.10;1.10;;;22.70;99.90;;;;;;5028715;28;20279;-72
2021/08/08 12:14:30;;;;;;;1.63;0.90;;;22.80;99.90;;;;;;5028408;28;20297;-72
2021/08/08 12:17:01;;;;;;;1.57;1.40;;;22.90;99.90;;;;;;5028516;28;20227;-73
2021/08/08 12:19:29;;;;;;;2.30;1.10;;;23.20;99.90;;;;;;5028707;28;20198;-72
2021/08/08 12:22:01;;;;;;;0.82;0.82;;;23.40;99.90;;;;;;5028557;28;20228;-72
2021/08/08 12:24:33;;;;;;;1.88;1.00;;;23.40;99.90;;;;;;5028920;28;20201;-72
2021/08/08 12:27:01;;;;;;;3.00;1.07;;;23.50;99.90;;;;;;5028345;28;20251;-72
2021/08/08 12:29:32;;;;;;;2.80;2.60;;;23.50;99.80;;;;;;5028201;28;20676;-72
2021/08/08 12:32:13;;;;;;;2.10;1.20;;;23.60;99.90;;;;;;5028103;28;20282;-72
2021/08/08 12:34:40;;;;;;;0.95;0.95;;;23.50;99.70;;;;;;5028677;28;20201;-72
2021/08/08 12:37:10;;;;;;;1.23;1.00;;;23.30;98.90;;;;;;5028016;28;20289;-72
2021/08/08 12:39:39;;;;;;;1.17;1.00;;;23.30;99.30;;;;;;5028801;28;20292;-72
2021/08/08 12:42:16;;;;;;;3.10;1.15;;;23.50;99.00;;;;;;5028019;28;20251;-72
2021/08/08 12:44:43;;;;;;;0.90;0.90;;;23.70;99.50;;;;;;5028559;28;20243;-72
2021/08/08 12:47:10;;;;;;;3.33;1.40;;;23.90;98.30;;;;;;5027978;28;20251;-72
2021/08/08 12:49:38;;;;;;;2.00;1.13;;;24.00;98.70;;;;;;5028302;28;20200;-72
2021/08/08 12:52:06;;;;;;;2.65;1.10;;;23.90;97.70;;;;;;5028367;28;20212;-72